Time;durP1;ratioP1;P1;durP2;ratioP2;P2;SDS_P1;SDS_P2;PMS_P1;PMS_P2;Temp;Humidity;BMP_temperature;BMP_pressure;BME280_temperature;BME280_humidity;BME280_pressure;Samples;Min_cycle;Max_cycle;Signal;HPM_P1;HPM_P2
2022/04/24 00:00:30;;;;;;;3.20;3.00;;;;;19.30;99110.00;;;;2070524;28;20496;-47
2022/04/24 00:01:30;;;;;;;3.60;3.40;;;;;19.30;99112.00;;;;2070873;28;20760;-46
2022/04/24 00:02:31;;;;;;;3.17;2.97;;;;;19.30;99110.00;;;;2071274;28;20232;-45
2022/04/24 00:03:32;;;;;;;3.23;2.93;;;;;19.30;99107.00;;;;2071267;28;20218;-46
2022/04/24 00:04:32;;;;;;;3.07;2.87;;;;;19.30;99109.00;;;;2071237;28;20593;-46
2022/04/24 00:05:32;;;;;;;3.47;3.27;;;;;19.30;99111.00;;;;2070385;28;20454;-46
2022/04/24 00:06:34;;;;;;;3.30;3.10;;;;;19.30;99106.00;;;;2071099;28;20226;-46
2022/04/24 00:07:35;;;;;;;3.65;3.35;;;;;19.30;99105.00;;;;2070943;28;20352;-47
2022/04/24 00:08:35;;;;;;;3.73;3.43;;;;;19.30;99109.00;;;;2070963;28;20515;-46
2022/04/24 00:09:37;;;;;;;3.40;3.20;;;;;19.30;99108.00;;;;2071129;28;20274;-46
2022/04/24 00:10:38;;;;;;;3.30;3.10;;;;;19.30;99102.00;;;;2071251;28;20219;-49
2022/04/24 00:11:38;;;;;;;2.90;2.70;;;;;19.30;99099.00;;;;2070951;28;20218;-45
2022/04/24 00:12:39;;;;;;;3.03;2.83;;;;;19.30;99100.00;;;;2071039;28;20554;-46
2022/04/24 00:13:41;;;;;;;4.43;3.00;;;;;19.30;99102.00;;;;2071343;28;20214;-46
2022/04/24 00:14:43;;;;;;;3.45;3.20;;;;;19.30;99111.00;;;;2070993;28;20337;-45
2022/04/24 00:15:43;;;;;;;3.53;3.33;;;;;19.30;99101.00;;;;2070414;28;20747;-46
2022/04/24 00:16:44;;;;;;;3.27;3.07;;;;;19.30;99099.00;;;;2070602;28;20269;-48
2022/04/24 00:17:44;;;;;;;3.50;3.20;;;;;19.30;99112.00;;;;2070501;28;20218;-51
2022/04/24 00:18:45;;;;;;;3.30;3.10;;;;;19.30;99112.00;;;;2070945;28;20226;-49
2022/04/24 00:19:45;;;;;;;3.20;3.00;;;;;19.30;99108.00;;;;2070935;28;20293;-47
2022/04/24 00:20:46;;;;;;;3.10;2.87;;;;;19.30;99105.00;;;;2075324;28;20213;-47
2022/04/24 00:21:46;;;;;;;3.83;3.40;;;;;19.30;99104.00;;;;2078904;28;20260;-46
2022/04/24 00:22:46;;;;;;;3.83;3.53;;;;;19.30;99099.00;;;;2079023;28;20248;-47
2022/04/24 00:23:47;;;;;;;3.10;2.90;;;;;19.30;99099.00;;;;2078830;28;20267;-47
2022/04/24 00:24:47;;;;;;;3.67;3.37;;;;;19.30;99107.00;;;;2074586;28;20217;-47
2022/04/24 00:25:47;;;;;;;3.67;3.37;;;;;19.30;99090.00;;;;2078000;28;20222;-47
2022/04/24 00:26:48;;;;;;;3.00;2.80;;;;;19.30;99093.00;;;;2079131;28;20241;-45
2022/04/24 00:27:48;;;;;;;3.67;3.37;;;;;19.30;99103.00;;;;2078815;28;20241;-46
2022/04/24 00:28:48;;;;;;;3.50;3.30;;;;;19.30;99101.00;;;;2078896;28;20224;-47
2022/04/24 00:29:49;;;;;;;3.50;3.20;;;;;19.30;99121.00;;;;2078904;28;20221;-47
2022/04/24 00:30:49;;;;;;;3.33;3.13;;;;;19.30;99106.00;;;;2078767;28;20294;-47
2022/04/24 00:31:49;;;;;;;3.83;3.53;;;;;19.30;99105.00;;;;2078775;28;20260;-47
2022/04/24 00:32:50;;;;;;;3.37;3.17;;;;;19.30;99099.00;;;;2078827;28;20213;-46
2022/04/24 00:33:50;;;;;;;3.40;3.10;;;;;19.30;99104.00;;;;2079274;28;20231;-47
2022/04/24 00:34:50;;;;;;;3.13;2.93;;;;;19.30;99103.00;;;;2079196;28;20217;-46
2022/04/24 00:35:51;;;;;;;3.17;2.97;;;;;19.30;99096.00;;;;2078159;28;20220;-47
2022/04/24 00:36:51;;;;;;;3.43;3.13;;;;;19.30;99095.00;;;;2078820;28;20205;-46
2022/04/24 00:37:51;;;;;;;3.27;3.07;;;;;19.30;99097.00;;;;2078874;28;20616;-46
2022/04/24 00:38:52;;;;;;;3.47;3.27;;;;;19.30;99097.00;;;;2078754;28;20768;-47
2022/04/24 00:39:52;;;;;;;3.07;2.87;;;;;19.30;99100.00;;;;2071675;28;20210;-46
2022/04/24 00:40:54;;;;;;;3.70;3.40;;;;;19.30;99096.00;;;;2070666;28;20241;-47
2022/04/24 00:41:54;;;;;;;3.10;2.90;;;;;19.30;99092.00;;;;2070721;28;20221;-46
2022/04/24 00:42:54;;;;;;;3.30;3.10;;;;;19.30;99096.00;;;;2070889;28;20594;-47
2022/04/24 00:43:55;;;;;;;3.37;3.17;;;;;19.30;99093.00;;;;2070648;28;20207;-46
2022/04/24 00:44:55;;;;;;;3.30;3.10;;;;;19.30;99095.00;;;;2070566;28;20236;-46
2022/04/24 00:46:20;;;;;;;3.20;3.00;;;;;19.30;99100.00;;;;2070030;28;20248;-46
2022/04/24 00:47:22;;;;;;;3.45;3.25;;;;;19.30;99096.00;;;;2073938;28;20213;-47
2022/04/24 00:48:22;;;;;;;3.08;2.88;;;;;19.30;99100.00;;;;2078363;28;20592;-46
2022/04/24 00:49:23;;;;;;;2.90;2.70;;;;;19.30;99095.00;;;;2078777;28;20213;-46
2022/04/24 00:50:23;;;;;;;3.77;3.57;;;;;19.30;99103.00;;;;2078839;28;20223;-46
2022/04/24 00:51:24;;;;;;;3.13;2.93;;;;;19.30;99096.00;;;;2078857;28;20209;-46
2022/04/24 00:52:24;;;;;;;3.30;3.10;;;;;19.30;99102.00;;;;2078024;28;20287;-46
2022/04/24 00:53:24;;;;;;;3.33;3.10;;;;;19.30;99105.00;;;;2077265;28;20209;-46
2022/04/24 00:54:25;;;;;;;3.27;3.07;;;;;19.30;99106.00;;;;2077664;28;20213;-46
2022/04/24 00:55:25;;;;;;;3.40;3.10;;;;;19.30;99104.00;;;;2077299;28;20293;-46
2022/04/24 00:56:30;;;;;;;3.17;2.97;;;;;19.30;99106.00;;;;2078482;28;20710;-47
2022/04/24 00:57:31;;;;;;;3.10;2.90;;;;;19.30;99101.00;;;;2077942;28;20276;-46
2022/04/24 00:58:31;;;;;;;3.37;3.07;;;;;19.30;99096.00;;;;2078241;28;20222;-46
2022/04/24 00:59:31;;;;;;;3.30;3.10;;;;;19.30;99104.00;;;;2069625;28;20210;-45
2022/04/24 01:00:32;;;;;;;3.40;3.20;;;;;19.30;99095.00;;;;2069698;28;20292;-46
2022/04/24 01:01:33;;;;;;;3.33;3.13;;;;;19.30;99095.00;;;;2077784;28;20214;-46
2022/04/24 01:02:33;;;;;;;3.65;3.42;;;;;19.30;99105.00;;;;2077947;28;20224;-46
2022/04/24 01:03:34;;;;;;;3.20;3.00;;;;;19.30;99106.00;;;;2078172;28;20324;-46
2022/04/24 01:04:34;;;;;;;3.50;3.30;;;;;19.30;99098.00;;;;2078154;28;20217;-46
2022/04/24 01:05:34;;;;;;;2.87;2.67;;;;;19.30;99102.00;;;;2077423;28;20301;-47
2022/04/24 01:06:37;;;;;;;3.33;3.07;;;;;19.30;99101.00;;;;2077637;28;20213;-46
2022/04/24 01:07:37;;;;;;;3.40;3.20;;;;;19.30;99095.00;;;;2077861;28;20228;-46
2022/04/24 01:08:37;;;;;;;3.40;3.20;;;;;19.30;99105.00;;;;2077995;28;20577;-46
2022/04/24 01:09:38;;;;;;;3.17;2.97;;;;;19.30;99091.00;;;;2078279;28;20221;-46
2022/04/24 01:10:39;;;;;;;3.23;3.03;;;;;19.30;99099.00;;;;2077997;28;20213;-47
2022/04/24 01:11:39;;;;;;;3.30;3.00;;;;;19.30;99098.00;;;;2077917;28;20222;-45
2022/04/24 01:12:39;;;;;;;3.30;3.10;;;;;19.30;99103.00;;;;2077769;28;20228;-45
2022/04/24 01:13:40;;;;;;;3.57;3.27;;;;;19.30;99100.00;;;;2078651;28;20221;-46
2022/04/24 01:14:40;;;;;;;3.70;3.40;;;;;19.30;99100.00;;;;2078514;28;20248;-46
2022/04/24 01:15:40;;;;;;;3.67;3.37;;;;;19.30;99098.00;;;;2077835;28;20217;-46
2022/04/24 01:16:41;;;;;;;3.00;2.80;;;;;19.30;99098.00;;;;2078725;28;20221;-47
2022/04/24 01:17:41;;;;;;;3.30;3.10;;;;;19.30;99095.00;;;;2078629;28;20225;-46
2022/04/24 01:18:42;;;;;;;3.20;3.00;;;;;19.30;99098.00;;;;2078742;28;20619;-46
2022/04/24 01:19:42;;;;;;;3.40;3.20;;;;;19.30;99101.00;;;;2077693;28;20217;-45
2022/04/24 01:20:43;;;;;;;3.40;3.20;;;;;19.30;99103.00;;;;2077863;28;20267;-46
2022/04/24 01:21:44;;;;;;;3.00;2.80;;;;;19.30;99100.00;;;;2078413;28;20218;-47
2022/04/24 01:22:44;;;;;;;2.70;2.50;;;;;19.30;99099.00;;;;2071797;28;20245;-46
2022/04/24 01:23:45;;;;;;;3.13;2.93;;;;;19.30;99100.00;;;;2070528;28;20753;-46
2022/04/24 01:24:45;;;;;;;2.93;2.73;;;;;19.30;99099.00;;;;2070726;28;20248;-46
2022/04/24 01:25:45;;;;;;;3.10;2.90;;;;;19.30;99094.00;;;;2077838;28;20694;-46
2022/04/24 01:26:46;;;;;;;3.00;2.80;;;;;19.30;99099.00;;;;2078806;28;20213;-47
2022/04/24 01:27:46;;;;;;;3.07;2.87;;;;;19.30;99098.00;;;;2077854;28;20214;-46
2022/04/24 01:28:46;;;;;;;3.30;3.10;;;;;19.30;99104.00;;;;2078227;28;20209;-46
2022/04/24 01:29:47;;;;;;;3.10;2.90;;;;;19.30;99105.00;;;;2078776;28;20230;-46
2022/04/24 01:30:47;;;;;;;3.30;3.10;;;;;19.30;99091.00;;;;2078744;28;20756;-45
2022/04/24 01:31:48;;;;;;;3.33;3.10;;;;;19.30;99097.00;;;;2078424;28;20217;-47
2022/04/24 01:32:49;;;;;;;3.40;3.20;;;;;19.30;99090.00;;;;2070694;28;20214;-44
2022/04/24 01:33:49;;;;;;;3.13;2.93;;;;;19.30;99092.00;;;;2070617;28;20246;-45
2022/04/24 01:34:49;;;;;;;3.17;2.97;;;;;19.30;99097.00;;;;2070243;28;20218;-45
2022/04/24 01:35:50;;;;;;;3.20;3.00;;;;;19.30;99086.00;;;;2069760;28;20256;-45
2022/04/24 01:36:50;;;;;;;3.63;3.33;;;;;19.30;99092.00;;;;2070251;28;20273;-47
2022/04/24 01:37:50;;;;;;;3.20;3.00;;;;;19.30;99100.00;;;;2069599;28;20243;-47
2022/04/24 01:38:51;;;;;;;3.53;3.27;;;;;19.10;99094.00;;;;2070344;28;20230;-45
2022/04/24 01:39:53;;;;;;;3.43;3.10;;;;;19.30;99097.00;;;;2070611;28;20222;-46
2022/04/24 01:40:53;;;;;;;3.35;3.15;;;;;19.30;99101.00;;;;2070481;28;20218;-45
2022/04/24 01:41:55;;;;;;;3.40;3.10;;;;;19.30;99100.00;;;;2070251;28;20214;-44
2022/04/24 01:42:56;;;;;;;3.10;2.90;;;;;19.30;99098.00;;;;2070505;28;20213;-44
2022/04/24 01:43:56;;;;;;;3.20;3.00;;;;;19.30;99091.00;;;;2070391;28;20225;-46
2022/04/24 01:44:56;;;;;;;3.17;2.97;;;;;19.30;99098.00;;;;2070373;28;20217;-46
2022/04/24 01:45:57;;;;;;;3.30;3.10;;;;;19.30;99093.00;;;;2069795;28;20214;-44
2022/04/24 01:46:57;;;;;;;3.47;3.17;;;;;19.30;99096.00;;;;2070314;28;20214;-44
2022/04/24 01:47:57;;;;;;;3.67;3.37;;;;;19.30;99098.00;;;;2069355;28;20269;-45
2022/04/24 01:48:58;;;;;;;3.50;3.20;;;;;19.30;99099.00;;;;2069672;28;20214;-45
2022/04/24 01:49:58;;;;;;;3.30;3.10;;;;;19.30;99097.00;;;;2070131;28;20218;-44
2022/04/24 01:51:00;;;;;;;3.07;2.87;;;;;19.30;99096.00;;;;2073597;28;20672;-47
2022/04/24 01:52:00;;;;;;;3.10;2.90;;;;;19.30;99096.00;;;;2084802;28;20770;-45
2022/04/24 01:53:00;;;;;;;3.30;3.10;;;;;19.30;99096.00;;;;2086637;28;20216;-47
2022/04/24 01:54:01;;;;;;;3.07;2.87;;;;;19.30;99095.00;;;;2086532;28;20236;-46
2022/04/24 01:55:01;;;;;;;2.77;2.57;;;;;19.30;99095.00;;;;2086456;28;20216;-46
2022/04/24 01:56:03;;;;;;;3.30;3.10;;;;;19.30;99096.00;;;;2085709;28;20220;-45
2022/04/24 01:57:04;;;;;;;2.97;2.78;;;;;19.30;99098.00;;;;2086429;28;20266;-45
2022/04/24 01:58:04;;;;;;;3.40;3.20;;;;;19.20;99089.00;;;;2086739;28;20255;-45
2022/04/24 01:59:05;;;;;;;3.40;3.13;;;;;19.30;99092.00;;;;2086670;28;20219;-46
2022/04/24 02:00:06;;;;;;;3.37;3.17;;;;;19.30;99095.00;;;;2086616;28;20211;-46
2022/04/24 02:01:06;;;;;;;3.53;3.27;;;;;19.30;99096.00;;;;2086733;28;20656;-45
2022/04/24 02:02:06;;;;;;;3.73;3.43;;;;;19.30;99097.00;;;;2086362;28;20459;-45
2022/04/24 02:03:07;;;;;;;3.07;2.87;;;;;19.30;99096.00;;;;2086822;28;20228;-46
2022/04/24 02:04:07;;;;;;;3.83;3.53;;;;;19.30;99096.00;;;;2086795;28;20211;-47
2022/04/24 02:05:07;;;;;;;3.50;3.30;;;;;19.30;99093.00;;;;2086401;28;20221;-46
2022/04/24 02:06:08;;;;;;;3.20;3.00;;;;;19.30;99093.00;;;;2085932;28;20217;-45
2022/04/24 02:07:08;;;;;;;3.03;2.83;;;;;19.30;99093.00;;;;2086663;28;20201;-45
2022/04/24 02:08:09;;;;;;;2.97;2.77;;;;;19.20;99091.00;;;;2086875;28;20255;-45
2022/04/24 02:09:09;;;;;;;3.60;3.30;;;;;19.30;99098.00;;;;2086693;28;20253;-45
2022/04/24 02:10:09;;;;;;;3.30;3.10;;;;;19.30;99091.00;;;;2086572;28;20216;-45
2022/04/24 02:11:10;;;;;;;2.93;2.73;;;;;19.30;99091.00;;;;2085980;28;20259;-46
2022/04/24 02:12:10;;;;;;;2.90;2.70;;;;;19.30;99087.00;;;;2085633;28;20217;-45
2022/04/24 02:13:10;;;;;;;3.20;2.97;;;;;19.30;99093.00;;;;2086869;28;20212;-45
2022/04/24 02:14:11;;;;;;;3.27;3.00;;;;;19.30;99040.00;;;;2086593;28;20213;-48
2022/04/24 02:15:11;;;;;;;2.97;2.77;;;;;19.30;99096.00;;;;2086491;28;20205;-46
2022/04/24 02:16:11;;;;;;;3.30;3.00;;;;;19.30;99094.00;;;;2085865;28;20204;-45
2022/04/24 02:17:12;;;;;;;3.20;3.00;;;;;19.00;99098.00;;;;2086617;28;20223;-47
2022/04/24 02:18:12;;;;;;;3.23;3.03;;;;;19.20;99100.00;;;;2086716;28;20216;-45
2022/04/24 02:19:12;;;;;;;3.30;3.00;;;;;19.20;99099.00;;;;2085997;28;20212;-45
2022/04/24 02:20:13;;;;;;;3.87;2.83;;;;;19.30;99098.00;;;;2085957;28;20620;-45
2022/04/24 02:21:13;;;;;;;3.33;3.13;;;;;19.30;99098.00;;;;2086608;28;20224;-45
2022/04/24 02:22:14;;;;;;;3.07;2.87;;;;;19.30;99104.00;;;;2086363;28;20242;-45
2022/04/24 02:23:14;;;;;;;3.23;3.03;;;;;19.20;99105.00;;;;2086656;28;20207;-48
2022/04/24 02:24:14;;;;;;;3.20;3.00;;;;;19.20;99095.00;;;;2086343;28;20197;-47
2022/04/24 02:25:15;;;;;;;3.27;3.00;;;;;19.20;99096.00;;;;2086347;28;20251;-45
2022/04/24 02:26:15;;;;;;;3.57;3.27;;;;;19.20;99101.00;;;;2085889;28;20278;-45
2022/04/24 02:27:16;;;;;;;3.27;3.07;;;;;19.20;99099.00;;;;2086614;28;20677;-45
2022/04/24 02:28:16;;;;;;;3.20;3.00;;;;;19.20;99099.00;;;;2086650;28;20236;-45
2022/04/24 02:29:17;;;;;;;3.00;2.80;;;;;19.20;99103.00;;;;2086243;28;20681;-45
2022/04/24 02:30:17;;;;;;;3.23;3.03;;;;;19.20;99101.00;;;;2086548;28;20208;-45
2022/04/24 02:31:17;;;;;;;3.03;2.83;;;;;19.20;99103.00;;;;2086517;28;20670;-44
2022/04/24 02:32:18;;;;;;;3.33;3.13;;;;;19.20;99102.00;;;;2086267;28;20217;-44
2022/04/24 02:33:18;;;;;;;2.97;2.77;;;;;19.20;99092.00;;;;2086723;28;20217;-45
2022/04/24 02:34:18;;;;;;;3.03;2.83;;;;;19.20;99101.00;;;;2086400;28;20300;-45
2022/04/24 02:35:19;;;;;;;3.20;3.00;;;;;19.20;99097.00;;;;2085960;28;20216;-47
2022/04/24 02:36:19;;;;;;;3.20;3.00;;;;;19.20;99099.00;;;;2086434;28;20208;-45
2022/04/24 02:37:20;;;;;;;2.90;2.70;;;;;19.20;99094.00;;;;2086383;28;20427;-45
2022/04/24 02:38:20;;;;;;;3.30;3.10;;;;;19.20;99095.00;;;;2086347;28;20271;-45
2022/04/24 02:39:20;;;;;;;3.00;2.80;;;;;19.20;99097.00;;;;2085781;28;20228;-45
2022/04/24 02:40:23;;;;;;;2.97;2.77;;;;;19.20;99100.00;;;;2086962;28;20224;-45
2022/04/24 02:41:25;;;;;;;3.00;2.80;;;;;19.20;99096.00;;;;2088085;28;20209;-44
2022/04/24 02:42:25;;;;;;;3.03;2.83;;;;;19.20;99097.00;;;;2087956;28;20217;-46
2022/04/24 02:43:26;;;;;;;3.30;3.10;;;;;19.20;99099.00;;;;2087960;28;20213;-45
2022/04/24 02:44:26;;;;;;;2.80;2.60;;;;;19.20;99094.00;;;;2088159;28;20239;-45
2022/04/24 02:45:26;;;;;;;3.27;3.07;;;;;19.20;99094.00;;;;2087125;28;20244;-45
2022/04/24 02:46:26;;;;;;;3.10;2.90;;;;;19.20;99097.00;;;;2088098;28;20205;-45
2022/04/24 02:47:27;;;;;;;3.37;3.10;;;;;19.20;99107.00;;;;2087303;28;20277;-44
2022/04/24 02:48:27;;;;;;;3.07;2.87;;;;;19.20;99099.00;;;;2087552;28;20216;-44
2022/04/24 02:49:28;;;;;;;3.40;3.20;;;;;19.20;99099.00;;;;2087817;28;20235;-46
2022/04/24 02:50:28;;;;;;;2.83;2.63;;;;;19.20;99095.00;;;;2088122;28;20294;-45
2022/04/24 02:51:28;;;;;;;3.03;2.83;;;;;19.20;99091.00;;;;2088257;28;20237;-45
2022/04/24 02:52:29;;;;;;;3.43;3.23;;;;;19.20;99095.00;;;;2087830;28;20250;-45
2022/04/24 02:53:29;;;;;;;3.60;3.30;;;;;19.20;99089.00;;;;2088130;28;20259;-46
2022/04/24 02:54:29;;;;;;;3.20;3.00;;;;;19.20;99096.00;;;;2087692;28;20212;-44
2022/04/24 02:55:30;;;;;;;3.20;3.00;;;;;19.20;99095.00;;;;2087179;28;20213;-46
2022/04/24 02:56:30;;;;;;;3.00;2.80;;;;;19.20;99103.00;;;;2087912;28;20752;-45
2022/04/24 02:57:32;;;;;;;3.27;2.97;;;;;19.20;99098.00;;;;2087844;28;20220;-45
2022/04/24 02:58:33;;;;;;;3.10;2.90;;;;;19.20;99103.00;;;;2088046;28;20216;-44
2022/04/24 02:59:33;;;;;;;3.20;3.00;;;;;19.20;99103.00;;;;2088066;28;20209;-45
2022/04/24 03:00:42;;;;;;;3.03;2.83;;;;;19.20;99090.00;;;;2086054;28;20641;-45
2022/04/24 03:01:44;;;;;;;2.92;2.72;;;;;19.20;99088.00;;;;2087566;28;20260;-47
2022/04/24 03:02:44;;;;;;;2.90;2.70;;;;;19.20;99094.00;;;;2087954;28;20209;-47
2022/04/24 03:03:45;;;;;;;3.00;2.80;;;;;19.20;99094.00;;;;2086286;28;20255;-45
2022/04/24 03:04:45;;;;;;;3.40;3.10;;;;;19.20;99093.00;;;;2087804;28;20209;-45
2022/04/24 03:05:49;;;;;;;3.00;2.80;;;;;19.20;99100.00;;;;2087016;28;20231;-45
2022/04/24 03:06:50;;;;;;;3.00;2.80;;;;;19.20;99095.00;;;;2087901;28;20291;-45
2022/04/24 03:07:50;;;;;;;3.13;2.93;;;;;19.20;99094.00;;;;2087938;28;21126;-45
2022/04/24 03:08:50;;;;;;;3.33;3.13;;;;;19.20;99092.00;;;;2086818;28;20696;-47
2022/04/24 03:09:51;;;;;;;3.13;2.93;;;;;19.20;99097.00;;;;2088003;28;21096;-47
2022/04/24 03:10:51;;;;;;;3.13;2.93;;;;;19.20;99098.00;;;;2087847;28;20261;-46
2022/04/24 03:11:52;;;;;;;3.30;3.10;;;;;19.20;99093.00;;;;2087880;28;20223;-46
2022/04/24 03:12:52;;;;;;;3.40;3.20;;;;;19.20;99097.00;;;;2087957;28;20209;-46
2022/04/24 03:13:52;;;;;;;3.30;3.10;;;;;19.20;99085.00;;;;2087904;28;20259;-45
2022/04/24 03:14:53;;;;;;;2.93;2.73;;;;;19.20;99097.00;;;;2087965;28;20208;-46
2022/04/24 03:15:53;;;;;;;3.30;3.10;;;;;19.20;99092.00;;;;2086888;28;20220;-45
2022/04/24 03:16:53;;;;;;;3.07;2.87;;;;;19.20;99094.00;;;;2087817;28;20231;-45
2022/04/24 03:17:56;;;;;;;2.87;2.67;;;;;19.20;99094.00;;;;2087769;28;20209;-45
2022/04/24 03:18:57;;;;;;;3.53;3.33;;;;;19.20;99097.00;;;;2086658;28;20263;-45
2022/04/24 03:19:57;;;;;;;3.30;3.10;;;;;19.20;99091.00;;;;2088016;28;20285;-46
2022/04/24 03:20:57;;;;;;;3.07;2.87;;;;;19.20;99095.00;;;;2087780;28;20216;-45
2022/04/24 03:21:58;;;;;;;3.10;2.90;;;;;19.20;99094.00;;;;2087547;28;20205;-45
2022/04/24 03:22:58;;;;;;;3.17;2.97;;;;;19.20;99092.00;;;;2087463;28;20215;-47
2022/04/24 03:23:59;;;;;;;3.27;3.07;;;;;19.20;99098.00;;;;2087967;28;20213;-45
2022/04/24 03:25:02;;;;;;;2.80;2.60;;;;;19.20;99091.00;;;;2087809;28;20784;-45
2022/04/24 03:26:02;;;;;;;3.22;2.92;;;;;19.20;99094.00;;;;2087067;28;20223;-44
2022/04/24 03:27:03;;;;;;;2.80;2.60;;;;;19.20;99090.00;;;;2087436;28;20220;-45
2022/04/24 03:28:04;;;;;;;3.20;3.00;;;;;19.20;99088.00;;;;2087851;28;20373;-46
2022/04/24 03:29:04;;;;;;;3.23;3.03;;;;;19.20;99084.00;;;;2087796;28;20705;-43
2022/04/24 03:30:05;;;;;;;2.90;2.70;;;;;19.20;99089.00;;;;2087917;28;20221;-44
2022/04/24 03:31:05;;;;;;;3.25;3.05;;;;;19.20;99097.00;;;;2080393;28;20222;-44
2022/04/24 03:32:06;;;;;;;3.50;3.30;;;;;19.20;99089.00;;;;2084116;28;20217;-46
2022/04/24 03:33:06;;;;;;;3.70;3.40;;;;;19.20;99090.00;;;;2087749;28;20220;-45
2022/04/24 03:34:07;;;;;;;2.80;2.60;;;;;19.20;99088.00;;;;2085302;28;20220;-44
2022/04/24 03:35:09;;;;;;;3.07;2.87;;;;;19.20;99094.00;;;;2079621;28;20371;-44
2022/04/24 03:36:09;;;;;;;2.95;2.75;;;;;19.20;99092.00;;;;2078782;28;20565;-45
2022/04/24 03:37:09;;;;;;;3.20;3.00;;;;;19.20;99089.00;;;;2079157;28;20224;-46
2022/04/24 03:38:09;;;;;;;3.67;3.37;;;;;19.20;99089.00;;;;2079488;28;20225;-45
2022/04/24 03:39:10;;;;;;;3.70;3.40;;;;;19.20;99082.00;;;;2079504;28;20224;-44
2022/04/24 03:40:10;;;;;;;3.07;2.87;;;;;19.20;99085.00;;;;2071113;28;20214;-45
2022/04/24 03:41:11;;;;;;;3.23;3.03;;;;;19.20;99088.00;;;;2070707;28;20226;-45
2022/04/24 03:42:11;;;;;;;3.47;3.27;;;;;19.20;99087.00;;;;2071298;28;20226;-46
2022/04/24 03:43:11;;;;;;;3.03;2.70;;;;;19.20;99086.00;;;;2071381;28;20774;-45
2022/04/24 03:44:12;;;;;;;3.37;3.10;;;;;19.20;99090.00;;;;2071286;28;20233;-45
2022/04/24 03:45:12;;;;;;;3.60;3.40;;;;;19.20;99093.00;;;;2071193;28;20279;-45
2022/04/24 03:46:12;;;;;;;2.93;2.73;;;;;19.20;99090.00;;;;2070519;28;20221;-47
2022/04/24 03:47:14;;;;;;;3.10;2.90;;;;;19.20;99087.00;;;;2071139;28;20682;-46
2022/04/24 03:48:14;;;;;;;3.33;3.13;;;;;19.20;99086.00;;;;2071393;28;20310;-46
2022/04/24 03:49:16;;;;;;;3.13;2.92;;;;;19.20;99085.00;;;;2070954;28;20218;-44
2022/04/24 03:50:16;;;;;;;3.17;2.97;;;;;19.20;99092.00;;;;2071462;28;20322;-45
2022/04/24 03:51:16;;;;;;;3.13;2.93;;;;;19.20;99093.00;;;;2070915;28;20217;-45
2022/04/24 03:52:17;;;;;;;3.07;2.87;;;;;19.20;99087.00;;;;2071076;28;20210;-46
2022/04/24 03:53:18;;;;;;;3.40;3.20;;;;;19.20;99081.00;;;;2071491;28;20202;-45
2022/04/24 03:54:18;;;;;;;3.17;2.97;;;;;19.20;99089.00;;;;2071258;28;20210;-45
2022/04/24 03:55:18;;;;;;;2.90;2.70;;;;;19.20;99083.00;;;;2070886;28;20462;-48
2022/04/24 03:56:19;;;;;;;3.10;2.90;;;;;19.20;99088.00;;;;2070683;28;20264;-45
2022/04/24 03:57:19;;;;;;;3.17;2.97;;;;;19.20;99088.00;;;;2071148;28;20217;-45
2022/04/24 03:58:19;;;;;;;3.40;3.20;;;;;19.20;99089.00;;;;2071298;28;20559;-45
2022/04/24 03:59:20;;;;;;;3.10;2.90;;;;;19.20;99089.00;;;;2071182;28;20777;-45
2022/04/24 04:00:20;;;;;;;3.50;3.20;;;;;19.20;99087.00;;;;2071376;28;20690;-44
2022/04/24 04:01:20;;;;;;;3.30;3.10;;;;;19.20;99088.00;;;;2071111;28;20233;-45
2022/04/24 04:02:21;;;;;;;3.50;3.27;;;;;19.20;99089.00;;;;2070942;28;20447;-44
2022/04/24 04:03:21;;;;;;;2.97;2.77;;;;;19.20;99019.00;;;;2071107;28;20242;-44
2022/04/24 04:04:22;;;;;;;2.97;2.77;;;;;19.20;99094.00;;;;2071251;28;20636;-46
2022/04/24 04:05:22;;;;;;;3.30;3.10;;;;;19.20;99088.00;;;;2070514;28;20574;-47
2022/04/24 04:06:22;;;;;;;3.10;2.90;;;;;19.20;99084.00;;;;2071010;28;20218;-44
2022/04/24 04:07:23;;;;;;;3.20;3.00;;;;;19.20;99090.00;;;;2070787;28;20234;-45
2022/04/24 04:08:23;;;;;;;3.30;3.10;;;;;19.20;99085.00;;;;2071148;28;20679;-44
2022/04/24 04:09:24;;;;;;;3.33;3.13;;;;;19.20;99092.00;;;;2071439;28;20213;-46
2022/04/24 04:10:24;;;;;;;3.53;3.23;;;;;19.20;99098.00;;;;2071214;28;20230;-45
2022/04/24 04:11:26;;;;;;;3.30;3.10;;;;;19.20;99094.00;;;;2071282;28;20244;-44
2022/04/24 04:12:27;;;;;;;3.05;2.85;;;;;19.20;99057.00;;;;2070987;28;20214;-45
2022/04/24 04:13:27;;;;;;;3.70;3.50;;;;;19.20;99092.00;;;;2071080;28;20202;-45
2022/04/24 04:14:28;;;;;;;3.27;3.07;;;;;19.20;99093.00;;;;2070889;28;20257;-44
2022/04/24 04:15:29;;;;;;;3.45;3.25;;;;;19.20;99096.00;;;;2076036;28;20725;-46
2022/04/24 04:16:29;;;;;;;3.50;3.30;;;;;19.20;99093.00;;;;2072479;28;20365;-45
2022/04/24 04:17:29;;;;;;;2.90;2.70;;;;;19.20;99087.00;;;;2071144;28;20269;-44
2022/04/24 04:18:30;;;;;;;3.50;3.30;;;;;19.20;99100.00;;;;2079179;28;20270;-44
2022/04/24 04:19:30;;;;;;;3.00;2.80;;;;;19.20;99101.00;;;;2079399;28;20205;-45
2022/04/24 04:20:30;;;;;;;3.20;3.00;;;;;19.20;99103.00;;;;2079205;28;20225;-45
2022/04/24 04:21:31;;;;;;;3.60;3.30;;;;;19.20;99103.00;;;;2071023;28;20214;-47
2022/04/24 04:22:31;;;;;;;3.43;3.20;;;;;19.20;99103.00;;;;2071412;28;20271;-47
2022/04/24 04:23:31;;;;;;;3.10;2.90;;;;;19.20;99097.00;;;;2079005;28;20206;-47
2022/04/24 04:24:32;;;;;;;3.40;3.20;;;;;19.20;99109.00;;;;2079199;28;20209;-44
2022/04/24 04:25:32;;;;;;;3.63;3.40;;;;;19.20;99099.00;;;;2078357;28;20229;-44
2022/04/24 04:26:32;;;;;;;3.50;3.20;;;;;19.20;99110.00;;;;2079208;28;20229;-47
2022/04/24 04:27:33;;;;;;;3.23;3.03;;;;;19.20;99098.00;;;;2078994;28;20244;-47
2022/04/24 04:28:33;;;;;;;3.40;3.20;;;;;19.20;99102.00;;;;2078980;28;20232;-45
2022/04/24 04:29:33;;;;;;;3.40;3.20;;;;;19.20;99107.00;;;;2079283;28;20221;-45
2022/04/24 04:30:34;;;;;;;3.10;2.90;;;;;19.20;99113.00;;;;2077867;28;20218;-45
2022/04/24 04:31:34;;;;;;;3.47;3.23;;;;;19.20;99100.00;;;;2079291;28;20237;-45
2022/04/24 04:32:35;;;;;;;3.13;2.93;;;;;19.20;99112.00;;;;2078608;28;20267;-47
2022/04/24 04:33:35;;;;;;;3.30;3.10;;;;;19.20;99108.00;;;;2075482;28;20675;-45
2022/04/24 04:34:36;;;;;;;3.20;3.00;;;;;19.20;99114.00;;;;2068351;28;20214;-44
2022/04/24 04:35:37;;;;;;;3.60;3.40;;;;;19.20;99101.00;;;;2069969;28;20965;-45
2022/04/24 04:36:37;;;;;;;3.17;2.97;;;;;19.20;99105.00;;;;2071032;28;20202;-46
2022/04/24 04:37:37;;;;;;;3.20;3.00;;;;;19.20;99114.00;;;;2070805;28;20281;-46
2022/04/24 04:38:38;;;;;;;3.33;3.13;;;;;19.20;99110.00;;;;2070983;28;20707;-45
2022/04/24 04:39:38;;;;;;;3.50;3.20;;;;;19.20;99116.00;;;;2079236;28;20217;-45
2022/04/24 04:40:38;;;;;;;3.70;3.50;;;;;19.20;99101.00;;;;2079120;28;20217;-44
2022/04/24 04:41:40;;;;;;;3.30;3.10;;;;;19.20;99108.00;;;;2078949;28;20213;-45
2022/04/24 04:42:40;;;;;;;3.55;3.33;;;;;19.20;99115.00;;;;2078636;28;20308;-46
2022/04/24 04:43:40;;;;;;;3.10;2.90;;;;;19.20;99114.00;;;;2078897;28;20221;-44
2022/04/24 04:44:41;;;;;;;3.77;3.50;;;;;19.20;99111.00;;;;2078797;28;20272;-44
2022/04/24 04:45:41;;;;;;;3.13;2.93;;;;;19.20;99115.00;;;;2078321;28;20223;-47
2022/04/24 04:46:41;;;;;;;3.77;3.57;;;;;19.20;98973.00;;;;2079058;28;20220;-47
2022/04/24 04:47:42;;;;;;;3.80;3.53;;;;;19.20;99123.00;;;;2078905;28;20238;-48
2022/04/24 04:48:42;;;;;;;3.43;3.13;;;;;19.20;99118.00;;;;2078909;28;20586;-45
2022/04/24 04:49:43;;;;;;;3.50;3.20;;;;;19.20;99124.00;;;;2078953;28;20217;-45
2022/04/24 04:50:43;;;;;;;3.93;3.70;;;;;19.20;99115.00;;;;2078966;28;20217;-45
2022/04/24 04:51:44;;;;;;;3.63;3.43;;;;;19.20;99120.00;;;;2078222;28;20217;-44
2022/04/24 04:52:45;;;;;;;3.00;2.80;;;;;19.20;99114.00;;;;2069965;28;20321;-45
2022/04/24 04:53:45;;;;;;;3.10;2.90;;;;;19.20;99117.00;;;;2078369;28;20214;-45
2022/04/24 04:54:46;;;;;;;3.17;2.97;;;;;19.20;99114.00;;;;2078820;28;20213;-45
2022/04/24 04:55:46;;;;;;;3.50;3.20;;;;;19.20;99121.00;;;;2078198;28;20579;-47
2022/04/24 04:56:47;;;;;;;3.50;3.30;;;;;19.20;99122.00;;;;2078761;28;20682;-45
2022/04/24 04:57:47;;;;;;;3.50;3.20;;;;;19.20;99121.00;;;;2078820;28;20228;-46
2022/04/24 04:58:48;;;;;;;4.07;3.77;;;;;19.20;99109.00;;;;2079038;28;20218;-45
2022/04/24 04:59:48;;;;;;;3.33;3.13;;;;;19.20;99124.00;;;;2078701;28;20697;-44
2022/04/24 05:00:48;;;;;;;3.40;3.20;;;;;19.20;99133.00;;;;2078136;28;20220;-47
2022/04/24 05:01:49;;;;;;;3.80;3.50;;;;;19.20;99124.00;;;;2070920;28;20214;-45
2022/04/24 05:02:49;;;;;;;3.40;3.20;;;;;19.20;99126.00;;;;2070191;28;20245;-45
2022/04/24 05:03:49;;;;;;;3.90;3.60;;;;;19.20;99125.00;;;;2070649;28;20210;-45